sensor_id;sensor_type;location;lat;lon;timestamp;temperature;humidity
64143;DHT22;50437;51.970;5.904;2023-11-19T00:01:32;12.40;99.90
64143;DHT22;50437;51.970;5.904;2023-11-19T00:03:58;12.40;99.90
64143;DHT22;50437;51.970;5.904;2023-11-19T00:06:24;12.30;99.90
64143;DHT22;50437;51.970;5.904;2023-11-19T00:08:52;12.40;99.90
64143;DHT22;50437;51.970;5.904;2023-11-19T00:11:18;12.30;99.90
64143;DHT22;50437;51.970;5.904;2023-11-19T00:13:44;12.40;99.90
64143;DHT22;50437;51.970;5.904;2023-11-19T00:16:10;12.40;99.90
64143;DHT22;50437;51.970;5.904;2023-11-19T00:18:36;12.40;99.90
64143;DHT22;50437;51.970;5.904;2023-11-19T00:21:02;12.40;99.90
64143;DHT22;50437;51.970;5.904;2023-11-19T00:23:28;12.50;99.90
64143;DHT22;50437;51.970;5.904;2023-11-19T00:25:54;12.50;99.90
64143;DHT22;50437;51.970;5.904;2023-11-19T00:28:20;12.50;99.90
64143;DHT22;50437;51.970;5.904;2023-11-19T00:30:46;12.40;99.90
64143;DHT22;50437;51.970;5.904;2023-11-19T00:33:12;12.50;99.90
64143;DHT22;50437;51.970;5.904;2023-11-19T00:35:38;12.50;99.90
64143;DHT22;50437;51.970;5.904;2023-11-19T00:38:05;12.50;99.90
64143;DHT22;50437;51.970;5.904;2023-11-19T00:40:31;12.50;99.90
64143;DHT22;50437;51.970;5.904;2023-11-19T00:42:57;12.50;99.90
64143;DHT22;50437;51.970;5.904;2023-11-19T00:45:23;12.40;99.90
64143;DHT22;50437;51.970;5.904;2023-11-19T00:47:52;12.50;99.90
64143;DHT22;50437;51.970;5.904;2023-11-19T00:50:18;12.40;99.90
64143;DHT22;50437;51.970;5.904;2023-11-19T00:52:44;12.40;99.90
64143;DHT22;50437;51.970;5.904;2023-11-19T00:55:10;12.50;99.90
64143;DHT22;50437;51.970;5.904;2023-11-19T00:57:37;12.50;99.90
64143;DHT22;50437;51.970;5.904;2023-11-19T01:00:04;12.50;99.90
64143;DHT22;50437;51.970;5.904;2023-11-19T01:02:38;12.50;99.90
64143;DHT22;50437;51.970;5.904;2023-11-19T01:05:04;12.50;99.90
64143;DHT22;50437;51.970;5.904;2023-11-19T01:07:30;12.50;99.90
64143;DHT22;50437;51.970;5.904;2023-11-19T01:09:56;12.50;99.90
64143;DHT22;50437;51.970;5.904;2023-11-19T01:12:26;12.50;99.90
64143;DHT22;50437;51.970;5.904;2023-11-19T01:14:57;12.60;99.90
64143;DHT22;50437;51.970;5.904;2023-11-19T01:17:23;12.60;99.90
64143;DHT22;50437;51.970;5.904;2023-11-19T01:19:50;12.60;99.90
64143;DHT22;50437;51.970;5.904;2023-11-19T01:22:16;12.60;99.90
64143;DHT22;50437;51.970;5.904;2023-11-19T01:24:42;12.60;99.90
64143;DHT22;50437;51.970;5.904;2023-11-19T01:27:08;12.70;99.90
64143;DHT22;50437;51.970;5.904;2023-11-19T01:29:34;12.70;99.90
64143;DHT22;50437;51.970;5.904;2023-11-19T01:32:00;12.60;99.90
64143;DHT22;50437;51.970;5.904;2023-11-19T01:34:26;12.80;99.90
64143;DHT22;50437;51.970;5.904;2023-11-19T01:36:52;12.70;99.90
64143;DHT22;50437;51.970;5.904;2023-11-19T01:39:18;12.70;99.90
64143;DHT22;50437;51.970;5.904;2023-11-19T01:41:45;12.70;99.90
64143;DHT22;50437;51.970;5.904;2023-11-19T01:44:11;12.70;99.90
64143;DHT22;50437;51.970;5.904;2023-11-19T01:46:40;12.60;99.90
64143;DHT22;50437;51.970;5.904;2023-11-19T01:49:06;12.60;99.90
64143;DHT22;50437;51.970;5.904;2023-11-19T01:51:33;12.60;99.90
64143;DHT22;50437;51.970;5.904;2023-11-19T01:54:00;12.60;99.90
64143;DHT22;50437;51.970;5.904;2023-11-19T01:56:27;12.60;99.90
64143;DHT22;50437;51.970;5.904;2023-11-19T01:58:54;12.60;99.90
64143;DHT22;50437;51.970;5.904;2023-11-19T02:01:20;12.60;99.90
64143;DHT22;50437;51.970;5.904;2023-11-19T02:03:47;12.70;99.90
64143;DHT22;50437;51.970;5.904;2023-11-19T02:06:15;12.60;99.90
64143;DHT22;50437;51.970;5.904;2023-11-19T02:08:43;12.70;99.90
64143;DHT22;50437;51.970;5.904;2023-11-19T02:11:09;12.60;99.90
64143;DHT22;50437;51.970;5.904;2023-11-19T02:13:36;12.60;99.90
64143;DHT22;50437;51.970;5.904;2023-11-19T02:16:03;12.60;99.90
64143;DHT22;50437;51.970;5.904;2023-11-19T02:18:30;12.60;99.90
64143;DHT22;50437;51.970;5.904;2023-11-19T02:20:57;12.70;99.90
64143;DHT22;50437;51.970;5.904;2023-11-19T02:23:23;12.70;99.90
64143;DHT22;50437;51.970;5.904;2023-11-19T02:26:05;12.60;99.90
64143;DHT22;50437;51.970;5.904;2023-11-19T02:28:32;12.60;99.90
64143;DHT22;50437;51.970;5.904;2023-11-19T02:30:58;12.60;99.90
64143;DHT22;50437;51.970;5.904;2023-11-19T02:33:25;12.70;99.90
64143;DHT22;50437;51.970;5.904;2023-11-19T02:35:51;12.60;99.90
64143;DHT22;50437;51.970;5.904;2023-11-19T02:38:17;12.60;99.90
64143;DHT22;50437;51.970;5.904;2023-11-19T02:40:43;12.60;99.90
64143;DHT22;50437;51.970;5.904;2023-11-19T02:43:09;12.60;99.90
64143;DHT22;50437;51.970;5.904;2023-11-19T02:45:35;12.50;99.90
64143;DHT22;50437;51.970;5.904;2023-11-19T02:48:02;12.60;99.90
64143;DHT22;50437;51.970;5.904;2023-11-19T02:50:28;12.60;99.90
64143;DHT22;50437;51.970;5.904;2023-11-19T02:52:55;12.50;99.90
64143;DHT22;50437;51.970;5.904;2023-11-19T02:55:22;12.50;99.90
64143;DHT22;50437;51.970;5.904;2023-11-19T02:57:50;12.40;99.90
64143;DHT22;50437;51.970;5.904;2023-11-19T03:00:21;12.40;99.90
64143;DHT22;50437;51.970;5.904;2023-11-19T03:02:51;12.40;99.90
64143;DHT22;50437;51.970;5.904;2023-11-19T03:05:36;12.40;99.90
64143;DHT22;50437;51.970;5.904;2023-11-19T03:08:02;12.30;99.90
64143;DHT22;50437;51.970;5.904;2023-11-19T03:10:28;12.40;99.90
64143;DHT22;50437;51.970;5.904;2023-11-19T03:12:55;12.30;99.90
64143;DHT22;50437;51.970;5.904;2023-11-19T03:15:22;12.20;99.90
64143;DHT22;50437;51.970;5.904;2023-11-19T03:17:49;12.20;99.90
64143;DHT22;50437;51.970;5.904;2023-11-19T03:20:16;12.10;99.90
64143;DHT22;50437;51.970;5.904;2023-11-19T03:22:42;12.10;99.90
64143;DHT22;50437;51.970;5.904;2023-11-19T03:25:10;12.10;99.90
64143;DHT22;50437;51.970;5.904;2023-11-19T03:27:36;12.10;99.90
64143;DHT22;50437;51.970;5.904;2023-11-19T03:30:02;12.10;99.90
64143;DHT22;50437;51.970;5.904;2023-11-19T03:32:33;12.00;99.90
64143;DHT22;50437;51.970;5.904;2023-11-19T03:35:01;12.00;99.90
64143;DHT22;50437;51.970;5.904;2023-11-19T03:37:28;11.90;99.90
64143;DHT22;50437;51.970;5.904;2023-11-19T03:39:54;11.90;99.90
64143;DHT22;50437;51.970;5.904;2023-11-19T03:42:21;11.80;99.90
64143;DHT22;50437;51.970;5.904;2023-11-19T03:44:47;11.80;99.90
64143;DHT22;50437;51.970;5.904;2023-11-19T03:47:16;11.70;99.90
64143;DHT22;50437;51.970;5.904;2023-11-19T03:49:42;11.70;99.90
64143;DHT22;50437;51.970;5.904;2023-11-19T03:52:09;11.70;99.90
64143;DHT22;50437;51.970;5.904;2023-11-19T03:54:35;11.60;99.90
64143;DHT22;50437;51.970;5.904;2023-11-19T03:57:02;11.60;99.90
64143;DHT22;50437;51.970;5.904;2023-11-19T03:59:32;11.40;99.90
64143;DHT22;50437;51.970;5.904;2023-11-19T04:01:59;11.40;99.90
64143;DHT22;50437;51.970;5.904;2023-11-19T04:04:29;11.30;99.90
64143;DHT22;50437;51.970;5.904;2023-11-19T04:06:58;11.30;99.90
64143;DHT22;50437;51.970;5.904;2023-11-19T04:09:26;11.30;99.90
64143;DHT22;50437;51.970;5.904;2023-11-19T04:11:52;11.20;99.90
64143;DHT22;50437;51.970;5.904;2023-11-19T04:14:18;11.10;99.90
64143;DHT22;50437;51.970;5.904;2023-11-19T04:16:44;11.10;99.90
64143;DHT22;50437;51.970;5.904;2023-11-19T04:19:11;11.10;99.90
64143;DHT22;50437;51.970;5.904;2023-11-19T04:21:40;11.10;99.90
64143;DHT22;50437;51.970;5.904;2023-11-19T04:24:11;11.10;99.90
64143;DHT22;50437;51.970;5.904;2023-11-19T04:26:43;11.10;99.90
64143;DHT22;50437;51.970;5.904;2023-11-19T04:29:11;11.10;99.90
64143;DHT22;50437;51.970;5.904;2023-11-19T04:31:37;11.00;99.90
64143;DHT22;50437;51.970;5.904;2023-11-19T04:34:03;11.00;99.90
64143;DHT22;50437;51.970;5.904;2023-11-19T04:36:29;11.00;99.90
64143;DHT22;50437;51.970;5.904;2023-11-19T04:38:55;11.00;99.90
64143;DHT22;50437;51.970;5.904;2023-11-19T04:41:21;10.90;99.90
64143;DHT22;50437;51.970;5.904;2023-11-19T04:43:47;10.90;99.90
64143;DHT22;50437;51.970;5.904;2023-11-19T04:46:13;10.80;99.90
64143;DHT22;50437;51.970;5.904;2023-11-19T04:48:39;10.80;99.90
64143;DHT22;50437;51.970;5.904;2023-11-19T04:51:05;10.80;99.90
64143;DHT22;50437;51.970;5.904;2023-11-19T04:53:32;10.80;99.90
64143;DHT22;50437;51.970;5.904;2023-11-19T04:55:58;10.80;99.90
64143;DHT22;50437;51.970;5.904;2023-11-19T04:58:25;10.80;99.90
64143;DHT22;50437;51.970;5.904;2023-11-19T05:00:51;10.80;99.90
64143;DHT22;50437;51.970;5.904;2023-11-19T05:03:17;10.70;99.90
64143;DHT22;50437;51.970;5.904;2023-11-19T05:05:43;10.70;99.90
64143;DHT22;50437;51.970;5.904;2023-11-19T05:08:09;10.70;99.90
64143;DHT22;50437;51.970;5.904;2023-11-19T05:10:37;10.80;99.90
64143;DHT22;50437;51.970;5.904;2023-11-19T05:13:03;10.70;99.90
64143;DHT22;50437;51.970;5.904;2023-11-19T05:15:29;10.80;99.90
64143;DHT22;50437;51.970;5.904;2023-11-19T05:17:55;10.70;99.90
64143;DHT22;50437;51.970;5.904;2023-11-19T05:20:21;10.80;99.90
64143;DHT22;50437;51.970;5.904;2023-11-19T05:22:47;10.80;99.90
64143;DHT22;50437;51.970;5.904;2023-11-19T05:25:13;10.80;99.90
64143;DHT22;50437;51.970;5.904;2023-11-19T05:27:39;10.70;99.90
64143;DHT22;50437;51.970;5.904;2023-11-19T05:30:06;10.80;99.90
64143;DHT22;50437;51.970;5.904;2023-11-19T05:32:36;10.70;99.90
64143;DHT22;50437;51.970;5.904;2023-11-19T05:35:02;10.80;99.90
64143;DHT22;50437;51.970;5.904;2023-11-19T05:37:28;10.90;99.90
64143;DHT22;50437;51.970;5.904;2023-11-19T05:39:55;11.00;99.90
64143;DHT22;50437;51.970;5.904;2023-11-19T05:42:21;11.10;99.90
64143;DHT22;50437;51.970;5.904;2023-11-19T05:44:47;11.00;99.90
64143;DHT22;50437;51.970;5.904;2023-11-19T05:47:13;11.00;99.90
64143;DHT22;50437;51.970;5.904;2023-11-19T05:49:40;11.00;99.90
64143;DHT22;50437;51.970;5.904;2023-11-19T05:52:06;11.00;99.90
64143;DHT22;50437;51.970;5.904;2023-11-19T05:54:33;11.00;99.90
64143;DHT22;50437;51.970;5.904;2023-11-19T05:57:04;11.00;99.90
64143;DHT22;50437;51.970;5.904;2023-11-19T05:59:30;10.90;99.90
64143;DHT22;50437;51.970;5.904;2023-11-19T06:01:57;10.90;99.90
64143;DHT22;50437;51.970;5.904;2023-11-19T06:04:23;10.90;99.90
64143;DHT22;50437;51.970;5.904;2023-11-19T06:06:49;10.90;99.90
64143;DHT22;50437;51.970;5.904;2023-11-19T06:09:16;10.80;99.90
64143;DHT22;50437;51.970;5.904;2023-11-19T06:11:44;10.90;99.90
64143;DHT22;50437;51.970;5.904;2023-11-19T06:14:10;10.90;99.90
64143;DHT22;50437;51.970;5.904;2023-11-19T06:16:37;10.90;99.90
64143;DHT22;50437;51.970;5.904;2023-11-19T06:19:05;10.90;99.90
64143;DHT22;50437;51.970;5.904;2023-11-19T06:21:31;10.80;99.90
64143;DHT22;50437;51.970;5.904;2023-11-19T06:23:58;10.80;99.90
64143;DHT22;50437;51.970;5.904;2023-11-19T06:26:24;10.80;99.90
64143;DHT22;50437;51.970;5.904;2023-11-19T06:28:50;10.80;99.90
64143;DHT22;50437;51.970;5.904;2023-11-19T06:31:16;10.70;99.90
64143;DHT22;50437;51.970;5.904;2023-11-19T06:33:42;10.80;99.90
64143;DHT22;50437;51.970;5.904;2023-11-19T06:36:08;10.70;99.90
64143;DHT22;50437;51.970;5.904;2023-11-19T06:38:35;10.70;99.90
64143;DHT22;50437;51.970;5.904;2023-11-19T06:41:01;10.70;99.90
64143;DHT22;50437;51.970;5.904;2023-11-19T06:43:27;10.70;99.90
64143;DHT22;50437;51.970;5.904;2023-11-19T06:45:53;10.70;99.90
64143;DHT22;50437;51.970;5.904;2023-11-19T06:48:20;10.60;99.90
64143;DHT22;50437;51.970;5.904;2023-11-19T06:50:46;10.60;99.90
64143;DHT22;50437;51.970;5.904;2023-11-19T06:53:12;10.70;99.90
64143;DHT22;50437;51.970;5.904;2023-11-19T06:55:38;10.70;99.90
64143;DHT22;50437;51.970;5.904;2023-11-19T06:58:05;10.60;99.90
64143;DHT22;50437;51.970;5.904;2023-11-19T07:00:31;10.70;99.90
64143;DHT22;50437;51.970;5.904;2023-11-19T07:02:58;10.70;99.90
64143;DHT22;50437;51.970;5.904;2023-11-19T07:05:25;10.70;99.90
64143;DHT22;50437;51.970;5.904;2023-11-19T07:07:51;10.70;99.90
64143;DHT22;50437;51.970;5.904;2023-11-19T07:10:17;10.80;99.90
64143;DHT22;50437;51.970;5.904;2023-11-19T07:12:43;10.80;99.90
64143;DHT22;50437;51.970;5.904;2023-11-19T07:15:10;10.70;99.90
64143;DHT22;50437;51.970;5.904;2023-11-19T07:17:38;10.90;99.90
64143;DHT22;50437;51.970;5.904;2023-11-19T07:20:05;10.80;99.90
64143;DHT22;50437;51.970;5.904;2023-11-19T07:22:32;10.80;99.90
64143;DHT22;50437;51.970;5.904;2023-11-19T07:24:58;10.90;99.90
64143;DHT22;50437;51.970;5.904;2023-11-19T07:27:24;10.80;99.90
64143;DHT22;50437;51.970;5.904;2023-11-19T07:29:50;10.80;99.90
64143;DHT22;50437;51.970;5.904;2023-11-19T07:32:17;10.80;99.90
64143;DHT22;50437;51.970;5.904;2023-11-19T07:34:43;10.80;99.90
64143;DHT22;50437;51.970;5.904;2023-11-19T07:37:10;10.80;99.90
64143;DHT22;50437;51.970;5.904;2023-11-19T07:39:36;10.80;99.90
64143;DHT22;50437;51.970;5.904;2023-11-19T07:42:03;10.80;99.90
64143;DHT22;50437;51.970;5.904;2023-11-19T07:44:29;10.90;99.90
64143;DHT22;50437;51.970;5.904;2023-11-19T07:46:55;10.90;99.90
64143;DHT22;50437;51.970;5.904;2023-11-19T07:49:22;10.90;99.90
64143;DHT22;50437;51.970;5.904;2023-11-19T07:51:48;11.00;99.90
64143;DHT22;50437;51.970;5.904;2023-11-19T07:54:14;11.00;99.90
64143;DHT22;50437;51.970;5.904;2023-11-19T07:56:40;11.10;99.90
64143;DHT22;50437;51.970;5.904;2023-11-19T07:59:06;11.10;99.90
64143;DHT22;50437;51.970;5.904;2023-11-19T08:01:32;11.10;99.90
64143;DHT22;50437;51.970;5.904;2023-11-19T08:03:58;11.10;99.90
64143;DHT22;50437;51.970;5.904;2023-11-19T08:06:24;11.00;99.90
64143;DHT22;50437;51.970;5.904;2023-11-19T08:08:50;11.10;99.90
64143;DHT22;50437;51.970;5.904;2023-11-19T08:11:17;11.10;99.90
64143;DHT22;50437;51.970;5.904;2023-11-19T08:13:45;11.10;99.90
64143;DHT22;50437;51.970;5.904;2023-11-19T08:16:11;11.20;99.90
64143;DHT22;50437;51.970;5.904;2023-11-19T08:18:37;11.20;99.90
64143;DHT22;50437;51.970;5.904;2023-11-19T08:21:03;11.20;99.90
64143;DHT22;50437;51.970;5.904;2023-11-19T08:23:30;11.20;99.90
64143;DHT22;50437;51.970;5.904;2023-11-19T08:25:56;11.30;99.90
64143;DHT22;50437;51.970;5.904;2023-11-19T08:28:22;11.40;99.90
64143;DHT22;50437;51.970;5.904;2023-11-19T08:30:49;11.50;99.90
64143;DHT22;50437;51.970;5.904;2023-11-19T08:33:16;11.60;99.90
64143;DHT22;50437;51.970;5.904;2023-11-19T08:35:42;11.60;99.90
64143;DHT22;50437;51.970;5.904;2023-11-19T08:38:08;11.60;99.90
64143;DHT22;50437;51.970;5.904;2023-11-19T08:40:34;11.70;99.90
64143;DHT22;50437;51.970;5.904;2023-11-19T08:43:01;11.70;99.90
64143;DHT22;50437;51.970;5.904;2023-11-19T08:45:27;11.70;99.90
64143;DHT22;50437;51.970;5.904;2023-11-19T08:47:53;11.70;99.90
64143;DHT22;50437;51.970;5.904;2023-11-19T08:50:19;11.50;99.90
64143;DHT22;50437;51.970;5.904;2023-11-19T08:52:45;11.60;99.90
64143;DHT22;50437;51.970;5.904;2023-11-19T08:55:11;11.60;99.90
64143;DHT22;50437;51.970;5.904;2023-11-19T08:57:39;11.60;99.90
64143;DHT22;50437;51.970;5.904;2023-11-19T09:00:05;11.60;99.90
64143;DHT22;50437;51.970;5.904;2023-11-19T09:02:37;11.70;99.90
64143;DHT22;50437;51.970;5.904;2023-11-19T09:05:04;11.80;99.90
64143;DHT22;50437;51.970;5.904;2023-11-19T09:07:30;11.90;99.90
64143;DHT22;50437;51.970;5.904;2023-11-19T09:09:57;11.90;99.90
64143;DHT22;50437;51.970;5.904;2023-11-19T09:12:23;11.90;99.90
64143;DHT22;50437;51.970;5.904;2023-11-19T09:14:49;11.90;99.90
64143;DHT22;50437;51.970;5.904;2023-11-19T09:17:15;12.00;99.90
64143;DHT22;50437;51.970;5.904;2023-11-19T09:19:43;11.90;99.90
64143;DHT22;50437;51.970;5.904;2023-11-19T09:22:09;12.00;99.90
64143;DHT22;50437;51.970;5.904;2023-11-19T09:24:35;11.90;99.90
64143;DHT22;50437;51.970;5.904;2023-11-19T09:27:01;12.00;99.90
64143;DHT22;50437;51.970;5.904;2023-11-19T09:29:27;11.90;99.90
64143;DHT22;50437;51.970;5.904;2023-11-19T09:31:53;12.00;99.90
64143;DHT22;50437;51.970;5.904;2023-11-19T09:34:19;12.00;99.90
64143;DHT22;50437;51.970;5.904;2023-11-19T09:36:46;12.10;99.90
64143;DHT22;50437;51.970;5.904;2023-11-19T09:39:12;12.10;99.90
64143;DHT22;50437;51.970;5.904;2023-11-19T09:41:40;12.20;99.90
64143;DHT22;50437;51.970;5.904;2023-11-19T09:44:08;12.30;99.90
64143;DHT22;50437;51.970;5.904;2023-11-19T09:46:35;12.30;99.90
64143;DHT22;50437;51.970;5.904;2023-11-19T09:49:00;12.30;99.90
64143;DHT22;50437;51.970;5.904;2023-11-19T09:51:28;12.30;99.90
64143;DHT22;50437;51.970;5.904;2023-11-19T09:53:54;12.30;99.90
64143;DHT22;50437;51.970;5.904;2023-11-19T09:56:20;12.20;99.90
64143;DHT22;50437;51.970;5.904;2023-11-19T09:58:46;12.30;99.90
64143;DHT22;50437;51.970;5.904;2023-11-19T10:01:12;12.50;99.90
64143;DHT22;50437;51.970;5.904;2023-11-19T10:03:40;12.60;99.90
64143;DHT22;50437;51.970;5.904;2023-11-19T10:06:07;12.50;99.90
64143;DHT22;50437;51.970;5.904;2023-11-19T10:08:34;12.50;99.90
64143;DHT22;50437;51.970;5.904;2023-11-19T10:11:02;12.50;99.90
64143;DHT22;50437;51.970;5.904;2023-11-19T10:13:28;12.40;99.90
64143;DHT22;50437;51.970;5.904;2023-11-19T10:15:57;12.40;99.90
64143;DHT22;50437;51.970;5.904;2023-11-19T10:18:24;12.50;99.90
64143;DHT22;50437;51.970;5.904;2023-11-19T10:20:51;12.40;99.90
64143;DHT22;50437;51.970;5.904;2023-11-19T10:23:17;12.40;99.90
64143;DHT22;50437;51.970;5.904;2023-11-19T10:25:43;12.40;99.90
64143;DHT22;50437;51.970;5.904;2023-11-19T10:28:09;12.40;99.90
64143;DHT22;50437;51.970;5.904;2023-11-19T10:30:35;12.30;99.90
64143;DHT22;50437;51.970;5.904;2023-11-19T10:33:14;12.40;99.90
64143;DHT22;50437;51.970;5.904;2023-11-19T10:35:58;12.40;99.90
64143;DHT22;50437;51.970;5.904;2023-11-19T10:38:24;12.40;99.90
64143;DHT22;50437;51.970;5.904;2023-11-19T10:40:51;12.50;99.90
64143;DHT22;50437;51.970;5.904;2023-11-19T10:43:18;12.50;99.90
64143;DHT22;50437;51.970;5.904;2023-11-19T10:45:44;12.50;99.90
64143;DHT22;50437;51.970;5.904;2023-11-19T10:48:11;12.70;99.90
64143;DHT22;50437;51.970;5.904;2023-11-19T10:50:42;13.00;99.90
64143;DHT22;50437;51.970;5.904;2023-11-19T10:53:09;12.90;99.90
64143;DHT22;50437;51.970;5.904;2023-11-19T10:55:37;13.10;99.90
64143;DHT22;50437;51.970;5.904;2023-11-19T10:58:07;13.40;99.90
64143;DHT22;50437;51.970;5.904;2023-11-19T11:00:37;13.60;99.90
64143;DHT22;50437;51.970;5.904;2023-11-19T11:03:05;13.80;99.90
64143;DHT22;50437;51.970;5.904;2023-11-19T11:05:36;13.50;99.90
64143;DHT22;50437;51.970;5.904;2023-11-19T11:08:04;13.30;99.90
64143;DHT22;50437;51.970;5.904;2023-11-19T11:10:31;13.50;99.90
64143;DHT22;50437;51.970;5.904;2023-11-19T11:12:59;13.50;99.90
64143;DHT22;50437;51.970;5.904;2023-11-19T11:15:28;13.70;99.90
64143;DHT22;50437;51.970;5.904;2023-11-19T11:17:58;14.10;99.90
64143;DHT22;50437;51.970;5.904;2023-11-19T11:20:25;14.00;99.90
64143;DHT22;50437;51.970;5.904;2023-11-19T11:28:20;13.80;99.90
64143;DHT22;50437;51.970;5.904;2023-11-19T11:30:54;13.70;99.90
64143;DHT22;50437;51.970;5.904;2023-11-19T11:33:29;13.60;99.90
64143;DHT22;50437;51.970;5.904;2023-11-19T11:36:11;13.50;99.90
64143;DHT22;50437;51.970;5.904;2023-11-19T11:38:40;13.50;99.90
64143;DHT22;50437;51.970;5.904;2023-11-19T11:41:17;13.50;99.90
64143;DHT22;50437;51.970;5.904;2023-11-19T11:43:49;13.50;99.90
64143;DHT22;50437;51.970;5.904;2023-11-19T11:47:00;13.30;99.90
64143;DHT22;50437;51.970;5.904;2023-11-19T11:49:07;13.40;99.90
64143;DHT22;50437;51.970;5.904;2023-11-19T11:52:07;13.50;99.90
64143;DHT22;50437;51.970;5.904;2023-11-19T11:54:26;13.60;99.90
64143;DHT22;50437;51.970;5.904;2023-11-19T11:59:53;13.30;99.90
64143;DHT22;50437;51.970;5.904;2023-11-19T12:02:20;13.10;99.90
64143;DHT22;50437;51.970;5.904;2023-11-19T12:04:51;12.90;99.90
64143;DHT22;50437;51.970;5.904;2023-11-19T12:07:21;12.80;99.90
64143;DHT22;50437;51.970;5.904;2023-11-19T12:10:05;12.70;99.90
64143;DHT22;50437;51.970;5.904;2023-11-19T12:12:33;12.70;99.90
64143;DHT22;50437;51.970;5.904;2023-11-19T12:15:07;13.10;99.90
64143;DHT22;50437;51.970;5.904;2023-11-19T12:17:37;13.20;99.90
64143;DHT22;50437;51.970;5.904;2023-11-19T12:20:05;13.30;99.90
64143;DHT22;50437;51.970;5.904;2023-11-19T12:22:40;13.30;99.90
64143;DHT22;50437;51.970;5.904;2023-11-19T12:25:08;13.40;99.90
64143;DHT22;50437;51.970;5.904;2023-11-19T12:27:35;13.70;99.90
64143;DHT22;50437;51.970;5.904;2023-11-19T12:30:02;13.80;99.90
64143;DHT22;50437;51.970;5.904;2023-11-19T12:32:40;13.90;99.90
64143;DHT22;50437;51.970;5.904;2023-11-19T12:35:07;14.20;99.90
64143;DHT22;50437;51.970;5.904;2023-11-19T12:37:44;14.20;99.90
64143;DHT22;50437;51.970;5.904;2023-11-19T12:40:14;13.80;99.90
64143;DHT22;50437;51.970;5.904;2023-11-19T12:42:40;13.90;99.90
64143;DHT22;50437;51.970;5.904;2023-11-19T12:45:07;13.80;99.90
64143;DHT22;50437;51.970;5.904;2023-11-19T12:47:34;13.80;99.90
64143;DHT22;50437;51.970;5.904;2023-11-19T12:50:00;14.10;99.90
64143;DHT22;50437;51.970;5.904;2023-11-19T12:52:26;14.20;99.90
64143;DHT22;50437;51.970;5.904;2023-11-19T12:54:53;14.20;99.90
64143;DHT22;50437;51.970;5.904;2023-11-19T12:57:19;13.90;99.90
64143;DHT22;50437;51.970;5.904;2023-11-19T12:59:55;13.90;99.90
64143;DHT22;50437;51.970;5.904;2023-11-19T13:02:22;13.90;99.90
64143;DHT22;50437;51.970;5.904;2023-11-19T13:04:49;13.80;99.90
64143;DHT22;50437;51.970;5.904;2023-11-19T13:07:20;13.80;99.90
64143;DHT22;50437;51.970;5.904;2023-11-19T13:09:46;13.80;99.90
64143;DHT22;50437;51.970;5.904;2023-11-19T13:12:15;13.90;99.90
64143;DHT22;50437;51.970;5.904;2023-11-19T13:14:42;13.80;99.90
64143;DHT22;50437;51.970;5.904;2023-11-19T13:17:12;13.70;99.90
64143;DHT22;50437;51.970;5.904;2023-11-19T13:19:38;13.60;99.90
64143;DHT22;50437;51.970;5.904;2023-11-19T13:22:05;13.50;99.90
64143;DHT22;50437;51.970;5.904;2023-11-19T13:24:31;13.50;99.90
64143;DHT22;50437;51.970;5.904;2023-11-19T13:26:57;13.40;99.90
64143;DHT22;50437;51.970;5.904;2023-11-19T13:29:23;13.50;99.90
64143;DHT22;50437;51.970;5.904;2023-11-19T13:31:49;13.40;99.90
64143;DHT22;50437;51.970;5.904;2023-11-19T13:34:16;13.30;99.90
64143;DHT22;50437;51.970;5.904;2023-11-19T13:36:42;13.30;99.90
64143;DHT22;50437;51.970;5.904;2023-11-19T13:39:10;13.30;99.90
64143;DHT22;50437;51.970;5.904;2023-11-19T13:41:38;13.20;99.90
64143;DHT22;50437;51.970;5.904;2023-11-19T13:44:04;13.20;99.90
64143;DHT22;50437;51.970;5.904;2023-11-19T13:46:30;13.10;99.90
64143;DHT22;50437;51.970;5.904;2023-11-19T13:48:56;13.00;99.90
64143;DHT22;50437;51.970;5.904;2023-11-19T13:51:22;13.00;99.90
64143;DHT22;50437;51.970;5.904;2023-11-19T13:53:48;12.90;99.90
64143;DHT22;50437;51.970;5.904;2023-11-19T13:56:14;12.90;99.90
64143;DHT22;50437;51.970;5.904;2023-11-19T13:58:40;13.00;99.90
64143;DHT22;50437;51.970;5.904;2023-11-19T14:01:06;12.80;99.90
64143;DHT22;50437;51.970;5.904;2023-11-19T14:03:33;12.70;99.90
64143;DHT22;50437;51.970;5.904;2023-11-19T14:06:02;12.60;99.90
64143;DHT22;50437;51.970;5.904;2023-11-19T14:08:31;12.60;99.90
64143;DHT22;50437;51.970;5.904;2023-11-19T14:11:00;12.50;99.90
64143;DHT22;50437;51.970;5.904;2023-11-19T14:13:27;12.50;99.90
64143;DHT22;50437;51.970;5.904;2023-11-19T14:15:55;12.40;99.90
64143;DHT22;50437;51.970;5.904;2023-11-19T14:18:22;12.30;99.90
64143;DHT22;50437;51.970;5.904;2023-11-19T14:20:51;12.40;99.90
64143;DHT22;50437;51.970;5.904;2023-11-19T14:23:17;12.40;99.90
64143;DHT22;50437;51.970;5.904;2023-11-19T14:25:45;12.50;99.90
64143;DHT22;50437;51.970;5.904;2023-11-19T14:28:11;12.50;99.90
64143;DHT22;50437;51.970;5.904;2023-11-19T14:30:37;12.50;99.90
64143;DHT22;50437;51.970;5.904;2023-11-19T14:33:04;12.50;99.90
64143;DHT22;50437;51.970;5.904;2023-11-19T14:35:31;12.50;99.90
64143;DHT22;50437;51.970;5.904;2023-11-19T14:37:58;12.50;99.90
64143;DHT22;50437;51.970;5.904;2023-11-19T14:40:25;12.40;99.90
64143;DHT22;50437;51.970;5.904;2023-11-19T14:42:51;12.30;99.90
64143;DHT22;50437;51.970;5.904;2023-11-19T14:45:18;12.30;99.90
64143;DHT22;50437;51.970;5.904;2023-11-19T14:47:44;12.30;99.90
64143;DHT22;50437;51.970;5.904;2023-11-19T14:50:11;12.20;99.90
64143;DHT22;50437;51.970;5.904;2023-11-19T14:52:37;12.10;99.90
64143;DHT22;50437;51.970;5.904;2023-11-19T14:55:03;12.10;99.90
64143;DHT22;50437;51.970;5.904;2023-11-19T14:57:33;12.00;99.90
64143;DHT22;50437;51.970;5.904;2023-11-19T14:59:59;12.00;99.90
64143;DHT22;50437;51.970;5.904;2023-11-19T15:02:26;12.00;99.90
64143;DHT22;50437;51.970;5.904;2023-11-19T15:04:56;11.90;99.90
64143;DHT22;50437;51.970;5.904;2023-11-19T15:07:22;11.90;99.90
64143;DHT22;50437;51.970;5.904;2023-11-19T15:09:49;11.80;99.90
64143;DHT22;50437;51.970;5.904;2023-11-19T15:12:15;11.80;99.90
64143;DHT22;50437;51.970;5.904;2023-11-19T15:14:44;11.80;99.90
64143;DHT22;50437;51.970;5.904;2023-11-19T15:17:10;11.80;99.90
64143;DHT22;50437;51.970;5.904;2023-11-19T15:19:37;11.80;99.90
64143;DHT22;50437;51.970;5.904;2023-11-19T15:22:04;11.80;99.90
64143;DHT22;50437;51.970;5.904;2023-11-19T15:24:31;11.70;99.90
64143;DHT22;50437;51.970;5.904;2023-11-19T15:26:57;11.70;99.90
64143;DHT22;50437;51.970;5.904;2023-11-19T15:29:23;11.70;99.90
64143;DHT22;50437;51.970;5.904;2023-11-19T15:31:52;11.70;99.90
64143;DHT22;50437;51.970;5.904;2023-11-19T15:34:18;11.70;99.90
64143;DHT22;50437;51.970;5.904;2023-11-19T15:36:45;11.80;99.90
64143;DHT22;50437;51.970;5.904;2023-11-19T15:39:12;11.90;99.90